sensor_id;sensor_type;location;lat;lon;timestamp;P1;durP1;ratioP1;P2;durP2;ratioP2
63346;SDS011;49472;49.880;8.650;2022-12-07T00:00:52;20.93;;;18.53;;
63346;SDS011;49472;49.880;8.650;2022-12-07T00:03:17;24.17;;;19.80;;
63346;SDS011;49472;49.880;8.650;2022-12-07T00:05:43;24.20;;;18.93;;
63346;SDS011;49472;49.880;8.650;2022-12-07T00:08:08;21.43;;;18.80;;
63346;SDS011;49472;49.880;8.650;2022-12-07T00:10:33;21.10;;;18.70;;
63346;SDS011;49472;49.880;8.650;2022-12-07T00:12:59;24.37;;;18.80;;
63346;SDS011;49472;49.880;8.650;2022-12-07T00:15:24;24.80;;;19.73;;
63346;SDS011;49472;49.880;8.650;2022-12-07T00:17:50;22.80;;;19.60;;
63346;SDS011;49472;49.880;8.650;2022-12-07T00:20:15;24.40;;;19.67;;
63346;SDS011;49472;49.880;8.650;2022-12-07T00:22:40;21.57;;;18.27;;
63346;SDS011;49472;49.880;8.650;2022-12-07T00:25:06;22.40;;;19.67;;
63346;SDS011;49472;49.880;8.650;2022-12-07T00:27:31;21.30;;;18.40;;
63346;SDS011;49472;49.880;8.650;2022-12-07T00:29:56;24.00;;;20.10;;
63346;SDS011;49472;49.880;8.650;2022-12-07T00:32:22;23.90;;;21.33;;
63346;SDS011;49472;49.880;8.650;2022-12-07T00:34:47;20.60;;;18.40;;
63346;SDS011;49472;49.880;8.650;2022-12-07T00:37:12;21.57;;;18.20;;
63346;SDS011;49472;49.880;8.650;2022-12-07T00:39:38;21.83;;;19.50;;
63346;SDS011;49472;49.880;8.650;2022-12-07T00:42:03;24.00;;;19.20;;
63346;SDS011;49472;49.880;8.650;2022-12-07T00:44:28;28.77;;;20.57;;
63346;SDS011;49472;49.880;8.650;2022-12-07T00:46:54;20.37;;;18.13;;
63346;SDS011;49472;49.880;8.650;2022-12-07T00:49:20;26.13;;;19.00;;
63346;SDS011;49472;49.880;8.650;2022-12-07T00:51:47;28.07;;;19.27;;
63346;SDS011;49472;49.880;8.650;2022-12-07T00:54:13;26.50;;;20.27;;
63346;SDS011;49472;49.880;8.650;2022-12-07T00:56:39;23.27;;;18.43;;
63346;SDS011;49472;49.880;8.650;2022-12-07T00:59:04;22.63;;;19.87;;
63346;SDS011;49472;49.880;8.650;2022-12-07T01:01:34;20.63;;;18.43;;
63346;SDS011;49472;49.880;8.650;2022-12-07T01:04:02;26.23;;;20.60;;
63346;SDS011;49472;49.880;8.650;2022-12-07T01:06:28;21.63;;;19.37;;
63346;SDS011;49472;49.880;8.650;2022-12-07T01:08:54;23.47;;;19.13;;
63346;SDS011;49472;49.880;8.650;2022-12-07T01:11:24;21.50;;;19.20;;
63346;SDS011;49472;49.880;8.650;2022-12-07T01:13:52;28.00;;;20.37;;
63346;SDS011;49472;49.880;8.650;2022-12-07T01:16:19;27.70;;;19.30;;
63346;SDS011;49472;49.880;8.650;2022-12-07T01:18:46;22.67;;;19.43;;
63346;SDS011;49472;49.880;8.650;2022-12-07T01:21:14;22.23;;;19.50;;
63346;SDS011;49472;49.880;8.650;2022-12-07T01:23:43;22.83;;;18.70;;
63346;SDS011;49472;49.880;8.650;2022-12-07T01:26:12;23.60;;;19.00;;
63346;SDS011;49472;49.880;8.650;2022-12-07T01:28:39;21.73;;;19.50;;
63346;SDS011;49472;49.880;8.650;2022-12-07T01:31:05;22.00;;;18.40;;
63346;SDS011;49472;49.880;8.650;2022-12-07T01:33:34;24.90;;;19.10;;
63346;SDS011;49472;49.880;8.650;2022-12-07T01:36:04;19.93;;;17.80;;
63346;SDS011;49472;49.880;8.650;2022-12-07T01:38:37;23.73;;;18.37;;
63346;SDS011;49472;49.880;8.650;2022-12-07T01:41:03;25.33;;;19.37;;
63346;SDS011;49472;49.880;8.650;2022-12-07T01:43:29;21.77;;;18.50;;
63346;SDS011;49472;49.880;8.650;2022-12-07T01:45:56;21.40;;;18.80;;
63346;SDS011;49472;49.880;8.650;2022-12-07T01:48:23;26.03;;;19.37;;
63346;SDS011;49472;49.880;8.650;2022-12-07T01:50:53;22.10;;;18.97;;
63346;SDS011;49472;49.880;8.650;2022-12-07T01:53:21;21.40;;;17.60;;
63346;SDS011;49472;49.880;8.650;2022-12-07T01:55:52;23.13;;;19.07;;
63346;SDS011;49472;49.880;8.650;2022-12-07T01:58:18;22.50;;;18.87;;
63346;SDS011;49472;49.880;8.650;2022-12-07T02:00:44;20.80;;;18.33;;
63346;SDS011;49472;49.880;8.650;2022-12-07T02:03:11;20.57;;;17.70;;
63346;SDS011;49472;49.880;8.650;2022-12-07T02:05:41;22.40;;;19.60;;
63346;SDS011;49472;49.880;8.650;2022-12-07T02:08:08;21.20;;;18.97;;
63346;SDS011;49472;49.880;8.650;2022-12-07T02:10:35;20.47;;;17.80;;
63346;SDS011;49472;49.880;8.650;2022-12-07T02:13:02;22.67;;;20.20;;
63346;SDS011;49472;49.880;8.650;2022-12-07T02:29:33;19.33;;;17.33;;
63346;SDS011;49472;49.880;8.650;2022-12-07T02:34:55;18.87;;;16.97;;
63346;SDS011;49472;49.880;8.650;2022-12-07T02:40:31;23.00;;;18.50;;
63346;SDS011;49472;49.880;8.650;2022-12-07T02:43:10;26.60;;;18.60;;
63346;SDS011;49472;49.880;8.650;2022-12-07T02:45:41;21.50;;;17.80;;
63346;SDS011;49472;49.880;8.650;2022-12-07T02:48:09;25.23;;;17.43;;
63346;SDS011;49472;49.880;8.650;2022-12-07T02:50:36;24.00;;;18.97;;
63346;SDS011;49472;49.880;8.650;2022-12-07T02:53:02;20.23;;;17.70;;
63346;SDS011;49472;49.880;8.650;2022-12-07T02:55:28;21.00;;;17.40;;
63346;SDS011;49472;49.880;8.650;2022-12-07T02:58:17;22.07;;;18.67;;
63346;SDS011;49472;49.880;8.650;2022-12-07T03:03:57;23.87;;;17.70;;
63346;SDS011;49472;49.880;8.650;2022-12-07T03:06:36;20.93;;;18.33;;
63346;SDS011;49472;49.880;8.650;2022-12-07T03:09:16;24.73;;;19.27;;
63346;SDS011;49472;49.880;8.650;2022-12-07T03:11:50;22.23;;;18.10;;
63346;SDS011;49472;49.880;8.650;2022-12-07T03:14:24;22.63;;;18.63;;
63346;SDS011;49472;49.880;8.650;2022-12-07T03:17:02;22.83;;;19.60;;
63346;SDS011;49472;49.880;8.650;2022-12-07T03:19:30;24.77;;;19.57;;
63346;SDS011;49472;49.880;8.650;2022-12-07T03:22:02;23.13;;;17.90;;
63346;SDS011;49472;49.880;8.650;2022-12-07T03:24:35;20.63;;;17.03;;
63346;SDS011;49472;49.880;8.650;2022-12-07T03:27:06;20.87;;;18.43;;
63346;SDS011;49472;49.880;8.650;2022-12-07T03:30:05;20.63;;;18.30;;
63346;SDS011;49472;49.880;8.650;2022-12-07T03:37:55;21.40;;;19.00;;
63346;SDS011;49472;49.880;8.650;2022-12-07T03:42:53;23.90;;;17.63;;
63346;SDS011;49472;49.880;8.650;2022-12-07T03:45:21;23.50;;;17.40;;
63346;SDS011;49472;49.880;8.650;2022-12-07T03:51:01;20.90;;;18.00;;
63346;SDS011;49472;49.880;8.650;2022-12-07T03:53:51;20.27;;;16.83;;
63346;SDS011;49472;49.880;8.650;2022-12-07T03:56:37;22.70;;;17.03;;
63346;SDS011;49472;49.880;8.650;2022-12-07T03:59:05;22.07;;;17.97;;
63346;SDS011;49472;49.880;8.650;2022-12-07T04:01:31;21.50;;;18.00;;
63346;SDS011;49472;49.880;8.650;2022-12-07T04:03:56;21.10;;;18.30;;
63346;SDS011;49472;49.880;8.650;2022-12-07T04:06:22;26.83;;;18.23;;
63346;SDS011;49472;49.880;8.650;2022-12-07T04:08:47;19.20;;;16.50;;
63346;SDS011;49472;49.880;8.650;2022-12-07T04:11:12;22.83;;;17.50;;
63346;SDS011;49472;49.880;8.650;2022-12-07T04:13:38;20.50;;;17.20;;
63346;SDS011;49472;49.880;8.650;2022-12-07T04:16:22;23.23;;;17.97;;
63346;SDS011;49472;49.880;8.650;2022-12-07T04:18:47;21.83;;;18.60;;
63346;SDS011;49472;49.880;8.650;2022-12-07T04:21:12;25.70;;;18.80;;
63346;SDS011;49472;49.880;8.650;2022-12-07T04:23:37;22.67;;;17.63;;
63346;SDS011;49472;49.880;8.650;2022-12-07T04:26:03;26.83;;;17.70;;
63346;SDS011;49472;49.880;8.650;2022-12-07T04:28:28;21.93;;;17.40;;
63346;SDS011;49472;49.880;8.650;2022-12-07T04:30:53;23.90;;;18.07;;
63346;SDS011;49472;49.880;8.650;2022-12-07T04:33:18;20.07;;;17.90;;
63346;SDS011;49472;49.880;8.650;2022-12-07T04:35:44;22.57;;;17.60;;
63346;SDS011;49472;49.880;8.650;2022-12-07T04:38:09;22.90;;;18.50;;
63346;SDS011;49472;49.880;8.650;2022-12-07T04:40:34;26.17;;;18.47;;
63346;SDS011;49472;49.880;8.650;2022-12-07T04:43:00;23.33;;;18.70;;
63346;SDS011;49472;49.880;8.650;2022-12-07T04:45:25;22.00;;;18.47;;
63346;SDS011;49472;49.880;8.650;2022-12-07T04:47:50;21.57;;;17.50;;
63346;SDS011;49472;49.880;8.650;2022-12-07T04:50:15;22.00;;;17.97;;
63346;SDS011;49472;49.880;8.650;2022-12-07T04:52:41;22.63;;;18.47;;
63346;SDS011;49472;49.880;8.650;2022-12-07T04:55:06;22.20;;;18.43;;
63346;SDS011;49472;49.880;8.650;2022-12-07T04:57:32;23.10;;;18.53;;
63346;SDS011;49472;49.880;8.650;2022-12-07T04:59:57;19.93;;;17.77;;
63346;SDS011;49472;49.880;8.650;2022-12-07T05:02:22;19.60;;;17.50;;
63346;SDS011;49472;49.880;8.650;2022-12-07T05:04:47;19.30;;;17.20;;
63346;SDS011;49472;49.880;8.650;2022-12-07T05:07:13;19.97;;;17.80;;
63346;SDS011;49472;49.880;8.650;2022-12-07T05:09:39;20.67;;;18.00;;
63346;SDS011;49472;49.880;8.650;2022-12-07T05:12:04;24.27;;;17.87;;
63346;SDS011;49472;49.880;8.650;2022-12-07T05:14:30;20.53;;;18.33;;
63346;SDS011;49472;49.880;8.650;2022-12-07T05:16:55;23.67;;;18.57;;
63346;SDS011;49472;49.880;8.650;2022-12-07T05:19:20;21.30;;;17.93;;
63346;SDS011;49472;49.880;8.650;2022-12-07T05:21:46;19.93;;;17.77;;
63346;SDS011;49472;49.880;8.650;2022-12-07T05:24:12;22.80;;;18.47;;
63346;SDS011;49472;49.880;8.650;2022-12-07T05:26:38;25.53;;;18.10;;
63346;SDS011;49472;49.880;8.650;2022-12-07T05:29:04;24.47;;;17.70;;
63346;SDS011;49472;49.880;8.650;2022-12-07T05:31:30;21.23;;;19.03;;
63346;SDS011;49472;49.880;8.650;2022-12-07T05:33:56;22.57;;;18.87;;
63346;SDS011;49472;49.880;8.650;2022-12-07T05:36:22;22.47;;;18.67;;
63346;SDS011;49472;49.880;8.650;2022-12-07T05:38:47;21.03;;;18.17;;
63346;SDS011;49472;49.880;8.650;2022-12-07T05:41:14;21.10;;;18.90;;
63346;SDS011;49472;49.880;8.650;2022-12-07T05:44:01;20.23;;;17.30;;
63346;SDS011;49472;49.880;8.650;2022-12-07T05:46:26;21.83;;;18.20;;
63346;SDS011;49472;49.880;8.650;2022-12-07T05:48:51;20.07;;;17.50;;
63346;SDS011;49472;49.880;8.650;2022-12-07T05:51:17;20.80;;;18.57;;
63346;SDS011;49472;49.880;8.650;2022-12-07T05:53:43;22.20;;;18.20;;
63346;SDS011;49472;49.880;8.650;2022-12-07T05:56:09;20.63;;;18.33;;
63346;SDS011;49472;49.880;8.650;2022-12-07T05:58:34;20.27;;;18.27;;
63346;SDS011;49472;49.880;8.650;2022-12-07T06:01:18;24.00;;;18.40;;
63346;SDS011;49472;49.880;8.650;2022-12-07T06:03:43;23.93;;;18.97;;
63346;SDS011;49472;49.880;8.650;2022-12-07T06:06:10;20.67;;;18.57;;
63346;SDS011;49472;49.880;8.650;2022-12-07T06:08:35;20.67;;;17.97;;
63346;SDS011;49472;49.880;8.650;2022-12-07T06:11:01;24.70;;;18.10;;
63346;SDS011;49472;49.880;8.650;2022-12-07T06:13:45;26.80;;;18.40;;
63346;SDS011;49472;49.880;8.650;2022-12-07T06:16:10;20.57;;;17.37;;
63346;SDS011;49472;49.880;8.650;2022-12-07T06:18:35;23.77;;;19.27;;
63346;SDS011;49472;49.880;8.650;2022-12-07T06:21:00;20.77;;;16.93;;
63346;SDS011;49472;49.880;8.650;2022-12-07T06:23:26;32.73;;;18.53;;
63346;SDS011;49472;49.880;8.650;2022-12-07T06:25:51;21.90;;;18.10;;
63346;SDS011;49472;49.880;8.650;2022-12-07T06:28:16;20.87;;;18.43;;
63346;SDS011;49472;49.880;8.650;2022-12-07T06:30:41;19.67;;;17.57;;
63346;SDS011;49472;49.880;8.650;2022-12-07T06:33:07;19.90;;;17.80;;
63346;SDS011;49472;49.880;8.650;2022-12-07T06:35:32;19.83;;;17.73;;
63346;SDS011;49472;49.880;8.650;2022-12-07T06:37:58;19.40;;;17.50;;
63346;SDS011;49472;49.880;8.650;2022-12-07T06:40:23;20.00;;;17.83;;
63346;SDS011;49472;49.880;8.650;2022-12-07T06:42:48;19.20;;;17.13;;
63346;SDS011;49472;49.880;8.650;2022-12-07T06:45:14;25.43;;;19.83;;
63346;SDS011;49472;49.880;8.650;2022-12-07T06:47:39;21.10;;;18.23;;
63346;SDS011;49472;49.880;8.650;2022-12-07T06:50:04;24.77;;;18.90;;
63346;SDS011;49472;49.880;8.650;2022-12-07T06:52:32;25.13;;;17.87;;
63346;SDS011;49472;49.880;8.650;2022-12-07T06:54:57;21.77;;;18.30;;
63346;SDS011;49472;49.880;8.650;2022-12-07T06:57:23;20.70;;;18.30;;
63346;SDS011;49472;49.880;8.650;2022-12-07T06:59:49;25.00;;;19.27;;
63346;SDS011;49472;49.880;8.650;2022-12-07T07:02:14;23.73;;;19.90;;
63346;SDS011;49472;49.880;8.650;2022-12-07T07:04:39;26.63;;;19.30;;
63346;SDS011;49472;49.880;8.650;2022-12-07T07:07:04;21.27;;;18.57;;
63346;SDS011;49472;49.880;8.650;2022-12-07T07:09:30;25.67;;;19.20;;
63346;SDS011;49472;49.880;8.650;2022-12-07T07:11:55;20.50;;;18.40;;
63346;SDS011;49472;49.880;8.650;2022-12-07T07:14:20;22.40;;;20.03;;
63346;SDS011;49472;49.880;8.650;2022-12-07T07:16:46;20.93;;;18.63;;
63346;SDS011;49472;49.880;8.650;2022-12-07T07:19:12;24.50;;;20.43;;
63346;SDS011;49472;49.880;8.650;2022-12-07T07:21:37;21.30;;;19.00;;
63346;SDS011;49472;49.880;8.650;2022-12-07T07:24:02;22.33;;;19.03;;
63346;SDS011;49472;49.880;8.650;2022-12-07T07:26:28;21.80;;;19.60;;
63346;SDS011;49472;49.880;8.650;2022-12-07T07:28:53;22.57;;;19.57;;
63346;SDS011;49472;49.880;8.650;2022-12-07T07:31:18;21.13;;;18.63;;
63346;SDS011;49472;49.880;8.650;2022-12-07T07:33:45;22.73;;;20.37;;
63346;SDS011;49472;49.880;8.650;2022-12-07T07:36:11;26.30;;;19.73;;
63346;SDS011;49472;49.880;8.650;2022-12-07T07:38:36;24.30;;;19.33;;
63346;SDS011;49472;49.880;8.650;2022-12-07T07:41:01;23.23;;;19.53;;
63346;SDS011;49472;49.880;8.650;2022-12-07T07:43:27;25.97;;;19.77;;
63346;SDS011;49472;49.880;8.650;2022-12-07T07:45:52;23.47;;;19.70;;
63346;SDS011;49472;49.880;8.650;2022-12-07T07:48:17;23.27;;;19.60;;
63346;SDS011;49472;49.880;8.650;2022-12-07T07:50:42;24.30;;;20.63;;
63346;SDS011;49472;49.880;8.650;2022-12-07T07:53:08;21.67;;;19.47;;
63346;SDS011;49472;49.880;8.650;2022-12-07T07:55:33;21.60;;;19.03;;
63346;SDS011;49472;49.880;8.650;2022-12-07T07:57:58;23.07;;;20.07;;
63346;SDS011;49472;49.880;8.650;2022-12-07T08:00:24;30.23;;;19.70;;
63346;SDS011;49472;49.880;8.650;2022-12-07T08:02:49;23.80;;;20.60;;
63346;SDS011;49472;49.880;8.650;2022-12-07T08:05:14;22.67;;;20.20;;
63346;SDS011;49472;49.880;8.650;2022-12-07T08:07:40;21.87;;;18.27;;
63346;SDS011;49472;49.880;8.650;2022-12-07T08:10:06;24.10;;;20.90;;
63346;SDS011;49472;49.880;8.650;2022-12-07T08:12:35;23.87;;;20.20;;
63346;SDS011;49472;49.880;8.650;2022-12-07T08:15:02;22.10;;;19.90;;
63346;SDS011;49472;49.880;8.650;2022-12-07T08:17:28;22.20;;;19.17;;
63346;SDS011;49472;49.880;8.650;2022-12-07T08:19:54;21.73;;;19.53;;
63346;SDS011;49472;49.880;8.650;2022-12-07T08:22:19;22.43;;;20.00;;
63346;SDS011;49472;49.880;8.650;2022-12-07T08:24:45;22.83;;;20.40;;
63346;SDS011;49472;49.880;8.650;2022-12-07T08:27:10;24.37;;;20.90;;
63346;SDS011;49472;49.880;8.650;2022-12-07T08:29:35;25.50;;;20.93;;
63346;SDS011;49472;49.880;8.650;2022-12-07T08:32:04;25.70;;;19.63;;
63346;SDS011;49472;49.880;8.650;2022-12-07T08:34:29;26.83;;;20.83;;
63346;SDS011;49472;49.880;8.650;2022-12-07T08:36:54;21.27;;;19.00;;
63346;SDS011;49472;49.880;8.650;2022-12-07T08:39:19;25.67;;;20.00;;
63346;SDS011;49472;49.880;8.650;2022-12-07T08:41:45;22.23;;;19.53;;
63346;SDS011;49472;49.880;8.650;2022-12-07T08:44:10;25.43;;;19.13;;
63346;SDS011;49472;49.880;8.650;2022-12-07T08:46:40;22.90;;;20.33;;
63346;SDS011;49472;49.880;8.650;2022-12-07T08:49:22;32.00;;;20.00;;
63346;SDS011;49472;49.880;8.650;2022-12-07T08:51:52;22.83;;;19.50;;
63346;SDS011;49472;49.880;8.650;2022-12-07T08:54:18;27.57;;;20.77;;
63346;SDS011;49472;49.880;8.650;2022-12-07T08:56:44;24.03;;;20.13;;
63346;SDS011;49472;49.880;8.650;2022-12-07T08:59:12;25.03;;;20.70;;
63346;SDS011;49472;49.880;8.650;2022-12-07T09:01:39;26.10;;;20.60;;
63346;SDS011;49472;49.880;8.650;2022-12-07T09:04:06;23.67;;;20.50;;
63346;SDS011;49472;49.880;8.650;2022-12-07T09:06:31;25.27;;;20.07;;
63346;SDS011;49472;49.880;8.650;2022-12-07T09:08:57;21.70;;;19.40;;
63346;SDS011;49472;49.880;8.650;2022-12-07T09:11:25;26.43;;;20.60;;
63346;SDS011;49472;49.880;8.650;2022-12-07T09:13:50;22.80;;;20.40;;
63346;SDS011;49472;49.880;8.650;2022-12-07T09:16:16;21.73;;;19.40;;
63346;SDS011;49472;49.880;8.650;2022-12-07T09:18:41;21.50;;;19.23;;
63346;SDS011;49472;49.880;8.650;2022-12-07T09:21:06;21.20;;;19.10;;
63346;SDS011;49472;49.880;8.650;2022-12-07T09:23:32;29.03;;;20.20;;
63346;SDS011;49472;49.880;8.650;2022-12-07T09:26:01;22.10;;;19.80;;
63346;SDS011;49472;49.880;8.650;2022-12-07T09:28:27;22.60;;;19.40;;
63346;SDS011;49472;49.880;8.650;2022-12-07T09:30:53;28.33;;;20.53;;
63346;SDS011;49472;49.880;8.650;2022-12-07T09:33:18;22.10;;;19.30;;
63346;SDS011;49472;49.880;8.650;2022-12-07T09:35:44;24.90;;;20.70;;
63346;SDS011;49472;49.880;8.650;2022-12-07T09:38:13;22.07;;;19.37;;
63346;SDS011;49472;49.880;8.650;2022-12-07T09:40:38;45.73;;;20.23;;
63346;SDS011;49472;49.880;8.650;2022-12-07T09:43:04;22.17;;;19.80;;
63346;SDS011;49472;49.880;8.650;2022-12-07T09:45:34;26.20;;;20.27;;
63346;SDS011;49472;49.880;8.650;2022-12-07T09:48:04;21.37;;;18.93;;
63346;SDS011;49472;49.880;8.650;2022-12-07T09:50:31;21.67;;;19.47;;
63346;SDS011;49472;49.880;8.650;2022-12-07T09:53:08;23.63;;;21.13;;
63346;SDS011;49472;49.880;8.650;2022-12-07T09:55:38;23.10;;;20.67;;
63346;SDS011;49472;49.880;8.650;2022-12-07T09:58:08;23.50;;;19.07;;
63346;SDS011;49472;49.880;8.650;2022-12-07T10:00:44;24.23;;;19.87;;
63346;SDS011;49472;49.880;8.650;2022-12-07T10:03:10;23.20;;;20.13;;
63346;SDS011;49472;49.880;8.650;2022-12-07T10:05:38;26.60;;;21.17;;
63346;SDS011;49472;49.880;8.650;2022-12-07T10:08:08;22.93;;;20.43;;
63346;SDS011;49472;49.880;8.650;2022-12-07T10:10:36;24.30;;;20.00;;
63346;SDS011;49472;49.880;8.650;2022-12-07T10:13:06;22.23;;;19.87;;
63346;SDS011;49472;49.880;8.650;2022-12-07T10:20:50;26.57;;;21.10;;
63346;SDS011;49472;49.880;8.650;2022-12-07T10:23:25;22.47;;;20.20;;
63346;SDS011;49472;49.880;8.650;2022-12-07T10:25:51;25.40;;;20.77;;
63346;SDS011;49472;49.880;8.650;2022-12-07T10:28:19;23.60;;;20.03;;
63346;SDS011;49472;49.880;8.650;2022-12-07T10:30:56;24.50;;;20.70;;
63346;SDS011;49472;49.880;8.650;2022-12-07T10:38:48;23.20;;;20.37;;
63346;SDS011;49472;49.880;8.650;2022-12-07T10:41:25;28.20;;;19.53;;
63346;SDS011;49472;49.880;8.650;2022-12-07T10:43:52;23.40;;;19.60;;
63346;SDS011;49472;49.880;8.650;2022-12-07T10:52:02;24.27;;;20.17;;
63346;SDS011;49472;49.880;8.650;2022-12-07T10:57:39;21.33;;;19.20;;
63346;SDS011;49472;49.880;8.650;2022-12-07T11:05:19;25.90;;;19.87;;
63346;SDS011;49472;49.880;8.650;2022-12-07T11:21:09;23.73;;;18.57;;
63346;SDS011;49472;49.880;8.650;2022-12-07T11:26:40;19.13;;;16.87;;
63346;SDS011;49472;49.880;8.650;2022-12-07T11:31:38;19.70;;;17.70;;
63346;SDS011;49472;49.880;8.650;2022-12-07T11:34:15;20.70;;;17.23;;
63346;SDS011;49472;49.880;8.650;2022-12-07T11:36:45;18.70;;;17.00;;
63346;SDS011;49472;49.880;8.650;2022-12-07T11:42:01;19.73;;;16.70;;
63346;SDS011;49472;49.880;8.650;2022-12-07T11:47:58;17.20;;;15.70;;
63346;SDS011;49472;49.880;8.650;2022-12-07T11:55:47;17.10;;;15.70;;
63346;SDS011;49472;49.880;8.650;2022-12-07T12:06:35;16.10;;;14.53;;
63346;SDS011;49472;49.880;8.650;2022-12-07T12:09:17;16.87;;;15.00;;
63346;SDS011;49472;49.880;8.650;2022-12-07T12:15:02;15.23;;;14.00;;
63346;SDS011;49472;49.880;8.650;2022-12-07T12:17:50;15.33;;;13.87;;
63346;SDS011;49472;49.880;8.650;2022-12-07T12:20:30;17.33;;;13.60;;
63346;SDS011;49472;49.880;8.650;2022-12-07T12:25:42;14.93;;;13.73;;
63346;SDS011;49472;49.880;8.650;2022-12-07T12:28:29;14.70;;;13.40;;
63346;SDS011;49472;49.880;8.650;2022-12-07T12:31:15;15.13;;;13.73;;
63346;SDS011;49472;49.880;8.650;2022-12-07T12:33:51;14.80;;;13.50;;
63346;SDS011;49472;49.880;8.650;2022-12-07T12:36:26;16.20;;;13.20;;
63346;SDS011;49472;49.880;8.650;2022-12-07T12:44:01;14.17;;;12.80;;
63346;SDS011;49472;49.880;8.650;2022-12-07T12:51:46;13.73;;;12.70;;
63346;SDS011;49472;49.880;8.650;2022-12-07T12:54:18;13.67;;;12.47;;
63346;SDS011;49472;49.880;8.650;2022-12-07T13:02:37;16.57;;;13.20;;
63346;SDS011;49472;49.880;8.650;2022-12-07T13:15:43;14.30;;;13.30;;
63346;SDS011;49472;49.880;8.650;2022-12-07T13:20:57;14.27;;;13.13;;
63346;SDS011;49472;49.880;8.650;2022-12-07T13:28:43;14.07;;;11.73;;
63346;SDS011;49472;49.880;8.650;2022-12-07T13:31:23;16.33;;;14.77;;
63346;SDS011;49472;49.880;8.650;2022-12-07T13:33:57;16.70;;;15.00;;
63346;SDS011;49472;49.880;8.650;2022-12-07T13:36:23;15.80;;;14.30;;
63346;SDS011;49472;49.880;8.650;2022-12-07T13:38:54;14.03;;;12.93;;
63346;SDS011;49472;49.880;8.650;2022-12-07T13:41:23;13.00;;;11.67;;
63346;SDS011;49472;49.880;8.650;2022-12-07T13:46:29;13.90;;;12.90;;
63346;SDS011;49472;49.880;8.650;2022-12-07T13:49:18;13.50;;;12.40;;
63346;SDS011;49472;49.880;8.650;2022-12-07T13:51:46;13.70;;;12.37;;
63346;SDS011;49472;49.880;8.650;2022-12-07T13:54:12;13.93;;;12.73;;
63346;SDS011;49472;49.880;8.650;2022-12-07T13:56:39;12.80;;;11.50;;
63346;SDS011;49472;49.880;8.650;2022-12-07T13:59:07;18.07;;;12.70;;
63346;SDS011;49472;49.880;8.650;2022-12-07T14:01:38;12.87;;;11.77;;
63346;SDS011;49472;49.880;8.650;2022-12-07T14:09:52;14.77;;;13.33;;
63346;SDS011;49472;49.880;8.650;2022-12-07T14:12:19;16.40;;;12.70;;
63346;SDS011;49472;49.880;8.650;2022-12-07T14:14:46;15.97;;;13.13;;
63346;SDS011;49472;49.880;8.650;2022-12-07T14:17:18;14.80;;;13.40;;
63346;SDS011;49472;49.880;8.650;2022-12-07T14:19:46;15.47;;;12.10;;
63346;SDS011;49472;49.880;8.650;2022-12-07T14:24:47;13.00;;;11.57;;
63346;SDS011;49472;49.880;8.650;2022-12-07T14:27:17;13.73;;;12.30;;
63346;SDS011;49472;49.880;8.650;2022-12-07T14:29:44;13.57;;;12.10;;
63346;SDS011;49472;49.880;8.650;2022-12-07T14:32:17;17.67;;;12.57;;
63346;SDS011;49472;49.880;8.650;2022-12-07T14:37:22;13.30;;;12.40;;
63346;SDS011;49472;49.880;8.650;2022-12-07T14:39:48;12.93;;;11.93;;
63346;SDS011;49472;49.880;8.650;2022-12-07T14:42:13;13.47;;;12.17;;
63346;SDS011;49472;49.880;8.650;2022-12-07T14:44:38;13.10;;;12.03;;
63346;SDS011;49472;49.880;8.650;2022-12-07T14:47:04;13.63;;;12.20;;
63346;SDS011;49472;49.880;8.650;2022-12-07T14:49:29;14.87;;;13.33;;
63346;SDS011;49472;49.880;8.650;2022-12-07T14:51:54;17.47;;;14.30;;
63346;SDS011;49472;49.880;8.650;2022-12-07T14:54:20;15.10;;;13.53;;
63346;SDS011;49472;49.880;8.650;2022-12-07T14:56:49;14.87;;;13.47;;
63346;SDS011;49472;49.880;8.650;2022-12-07T14:59:16;25.83;;;16.33;;
63346;SDS011;49472;49.880;8.650;2022-12-07T15:01:42;17.80;;;14.30;;
63346;SDS011;49472;49.880;8.650;2022-12-07T15:04:07;13.80;;;12.60;;
63346;SDS011;49472;49.880;8.650;2022-12-07T15:06:32;14.60;;;13.10;;
63346;SDS011;49472;49.880;8.650;2022-12-07T15:08:58;14.10;;;12.33;;
63346;SDS011;49472;49.880;8.650;2022-12-07T15:11:23;14.23;;;11.90;;
63346;SDS011;49472;49.880;8.650;2022-12-07T15:13:48;19.30;;;13.63;;
63346;SDS011;49472;49.880;8.650;2022-12-07T15:16:32;15.90;;;13.63;;
63346;SDS011;49472;49.880;8.650;2022-12-07T15:18:58;13.60;;;12.50;;
63346;SDS011;49472;49.880;8.650;2022-12-07T15:21:23;13.23;;;12.13;;
63346;SDS011;49472;49.880;8.650;2022-12-07T15:23:48;12.23;;;11.43;;
63346;SDS011;49472;49.880;8.650;2022-12-07T15:26:14;13.23;;;11.90;;
63346;SDS011;49472;49.880;8.650;2022-12-07T15:28:40;12.67;;;11.67;;
63346;SDS011;49472;49.880;8.650;2022-12-07T15:31:16;11.70;;;11.03;;
63346;SDS011;49472;49.880;8.650;2022-12-07T15:33:42;14.23;;;12.87;;
63346;SDS011;49472;49.880;8.650;2022-12-07T15:36:09;14.60;;;13.43;;
63346;SDS011;49472;49.880;8.650;2022-12-07T15:38:43;12.70;;;11.17;;
63346;SDS011;49472;49.880;8.650;2022-12-07T15:41:09;13.10;;;11.80;;
63346;SDS011;49472;49.880;8.650;2022-12-07T15:43:35;12.97;;;12.07;;
63346;SDS011;49472;49.880;8.650;2022-12-07T15:46:19;13.40;;;12.10;;
63346;SDS011;49472;49.880;8.650;2022-12-07T15:48:45;13.10;;;11.87;;
63346;SDS011;49472;49.880;8.650;2022-12-07T15:51:10;13.63;;;12.60;;
63346;SDS011;49472;49.880;8.650;2022-12-07T15:53:36;14.40;;;13.13;;
63346;SDS011;49472;49.880;8.650;2022-12-07T15:56:01;14.30;;;13.20;;
63346;SDS011;49472;49.880;8.650;2022-12-07T15:58:31;14.20;;;13.13;;
63346;SDS011;49472;49.880;8.650;2022-12-07T16:00:57;16.67;;;15.13;;
63346;SDS011;49472;49.880;8.650;2022-12-07T16:03:23;15.90;;;14.40;;
63346;SDS011;49472;49.880;8.650;2022-12-07T16:05:49;15.40;;;13.80;;
63346;SDS011;49472;49.880;8.650;2022-12-07T16:08:15;15.40;;;14.10;;
63346;SDS011;49472;49.880;8.650;2022-12-07T16:10:40;16.33;;;15.03;;
63346;SDS011;49472;49.880;8.650;2022-12-07T16:13:08;16.17;;;14.67;;
63346;SDS011;49472;49.880;8.650;2022-12-07T16:15:39;15.60;;;13.17;;
63346;SDS011;49472;49.880;8.650;2022-12-07T16:18:06;14.73;;;13.43;;
63346;SDS011;49472;49.880;8.650;2022-12-07T16:20:31;15.00;;;13.67;;
63346;SDS011;49472;49.880;8.650;2022-12-07T16:22:57;14.53;;;12.87;;
63346;SDS011;49472;49.880;8.650;2022-12-07T16:25:23;14.87;;;13.53;;
63346;SDS011;49472;49.880;8.650;2022-12-07T16:27:48;15.13;;;13.53;;
63346;SDS011;49472;49.880;8.650;2022-12-07T16:30:14;13.70;;;12.43;;
63346;SDS011;49472;49.880;8.650;2022-12-07T16:32:41;13.90;;;12.50;;
63346;SDS011;49472;49.880;8.650;2022-12-07T16:35:07;13.50;;;12.30;;
63346;SDS011;49472;49.880;8.650;2022-12-07T16:37:33;13.77;;;12.43;;
63346;SDS011;49472;49.880;8.650;2022-12-07T16:39:58;13.73;;;12.50;;
63346;SDS011;49472;49.880;8.650;2022-12-07T16:42:23;13.70;;;12.33;;
63346;SDS011;49472;49.880;8.650;2022-12-07T16:44:49;13.17;;;12.20;;
63346;SDS011;49472;49.880;8.650;2022-12-07T16:47:14;12.70;;;11.63;;
63346;SDS011;49472;49.880;8.650;2022-12-07T16:49:39;12.27;;;11.23;;
63346;SDS011;49472;49.880;8.650;2022-12-07T16:52:05;12.77;;;11.53;;
63346;SDS011;49472;49.880;8.650;2022-12-07T16:54:30;13.77;;;12.20;;
63346;SDS011;49472;49.880;8.650;2022-12-07T16:56:58;13.27;;;12.37;;